Decoded Metar for MHCA (CATACAMAS in HONDURAS) (IATA:N/A) | Meteo·Mobile Aviation Weather
aviador You're here:

MHCA Decoded Metar

CATACAMAS in HONDURAS
Report Time2018-10-20 07:00:00
UTC Time2018-10-20 07:20:00
Flight Rules vfr VFR
Wind080° at 02 kt
W.Rank080° ranks 3
Current wind is below 080° avg. (3.9)
Visibility9999 m
Phenomena:N/A
Clouds:Scattered 026 Hf
Broken 080 Hf
Expected CloudBase > 400 ft AGL from Temp-Dew spread
Ceiling8,000 ft
Temp22°C (ISA +10)
Dew Point21°C (94% RH)
QNH1014 hPa
Density Alt2,900 ft
Elevation1,450 ft
Report Wrong Elevation
Raw Report
MHCA 200700Z 08002KT 9999 SCT026 BKN080 22/21 Q1014=

Extra information for MHCA:More info

Metar Taf Metar & Taf Last 4 Metars F.Rules Stats Wind Profile Meteogram Temp Stats Airport Information Weather charts Add Link Nearby VenuesMetar ALERT Operation Metar Decoded Social comments